createdAt,value
2022-09-06T00:01:12.005Z,12.60
2022-09-06T00:03:39.974Z,12.70
2022-09-06T00:06:11.418Z,12.70
2022-09-06T00:08:39.262Z,12.70
2022-09-06T00:11:07.431Z,12.70
2022-09-06T00:13:35.100Z,12.70
2022-09-06T00:16:09.919Z,12.70
2022-09-06T00:18:37.765Z,12.70
2022-09-06T00:21:06.156Z,12.60
2022-09-06T00:23:33.884Z,12.60
2022-09-06T00:26:05.397Z,12.40
2022-09-06T00:28:32.915Z,12.40
2022-09-06T00:31:08.386Z,12.30
2022-09-06T00:33:35.962Z,12.20
2022-09-06T00:36:03.474Z,12.20
2022-09-06T00:38:31.822Z,12.10
2022-09-06T00:40:59.573Z,12.10
2022-09-06T00:43:27.126Z,12.10
2022-09-06T00:45:55.181Z,12.00
2022-09-06T00:48:23.575Z,12.00
2022-09-06T00:50:53.515Z,12.00
2022-09-06T00:53:21.473Z,12.00
2022-09-06T00:55:49.086Z,12.00
2022-09-06T00:58:16.551Z,12.00
2022-09-06T01:00:45.375Z,11.90
2022-09-06T01:03:13.309Z,11.90
2022-09-06T01:05:50.564Z,11.90
2022-09-06T01:08:39.096Z,11.90
2022-09-06T01:11:06.687Z,11.80
2022-09-06T01:13:57.128Z,11.80
2022-09-06T01:16:42.483Z,11.80
2022-09-06T01:19:22.211Z,11.70
2022-09-06T01:22:04.322Z,11.70
2022-09-06T01:24:38.108Z,11.60
2022-09-06T01:27:21.193Z,11.60
2022-09-06T01:29:50.358Z,11.60
2022-09-06T01:32:24.160Z,11.60
2022-09-06T01:34:54.248Z,11.70
2022-09-06T01:37:23.217Z,11.70
2022-09-06T01:39:50.813Z,11.70
2022-09-06T01:42:20.823Z,11.70
2022-09-06T01:44:51.945Z,11.70
2022-09-06T01:47:28.508Z,11.70
2022-09-06T01:49:56.009Z,11.70
2022-09-06T01:52:33.679Z,11.80
2022-09-06T01:55:22.544Z,11.80
2022-09-06T01:57:55.908Z,11.90
2022-09-06T02:00:24.030Z,11.90
2022-09-06T02:03:01.289Z,11.90
2022-09-06T02:05:47.763Z,11.90
2022-09-06T02:08:21.621Z,11.80
2022-09-06T02:11:00.607Z,11.90
2022-09-06T02:13:31.911Z,11.80
2022-09-06T02:16:03.860Z,11.90
2022-09-06T02:18:34.577Z,11.90
2022-09-06T02:21:03.107Z,11.80
2022-09-06T02:23:32.633Z,11.80
2022-09-06T02:26:05.341Z,11.90
2022-09-06T02:28:33.148Z,11.80
2022-09-06T02:31:05.849Z,11.90
2022-09-06T02:33:33.674Z,11.90
2022-09-06T02:36:08.792Z,12.00
2022-09-06T02:38:38.223Z,12.10
2022-09-06T02:41:06.427Z,12.00
2022-09-06T02:43:34.278Z,12.00
2022-09-06T02:46:01.935Z,12.00
2022-09-06T02:48:29.577Z,11.90
2022-09-06T02:50:57.314Z,11.90
2022-09-06T02:53:24.808Z,11.90
2022-09-06T02:55:52.540Z,11.90
2022-09-06T02:58:20.478Z,11.80
2022-09-06T03:00:48.069Z,11.70
2022-09-06T03:03:16.270Z,11.70
2022-09-06T03:05:47.645Z,11.60
2022-09-06T03:08:15.344Z,11.70
2022-09-06T03:10:48.715Z,11.70
2022-09-06T03:13:16.110Z,11.70
2022-09-06T03:15:43.712Z,11.60
2022-09-06T03:18:11.811Z,11.50
2022-09-06T03:20:39.334Z,11.50
2022-09-06T03:23:06.791Z,11.50
2022-09-06T03:25:34.402Z,11.50
2022-09-06T03:28:03.097Z,11.50
2022-09-06T03:30:30.679Z,11.50
2022-09-06T03:33:02.592Z,11.50
2022-09-06T03:35:30.496Z,11.50
2022-09-06T03:37:58.153Z,11.50
2022-09-06T03:40:25.951Z,11.50
2022-09-06T03:42:53.419Z,11.60
2022-09-06T03:45:20.959Z,11.60
2022-09-06T03:47:48.525Z,11.60
2022-09-06T03:50:16.091Z,11.50
2022-09-06T03:52:43.879Z,11.50
2022-09-06T03:55:12.081Z,11.50
2022-09-06T03:57:39.502Z,11.60
2022-09-06T04:00:07.141Z,11.60
2022-09-06T04:02:38.914Z,11.50
2022-09-06T04:05:06.976Z,11.40
2022-09-06T04:07:34.462Z,11.30
2022-09-06T04:10:02.481Z,11.30
2022-09-06T04:12:29.950Z,11.30
2022-09-06T04:14:57.486Z,11.30
2022-09-06T04:17:25.021Z,11.20
2022-09-06T04:19:52.804Z,11.20
2022-09-06T04:22:20.390Z,11.30
2022-09-06T04:24:47.862Z,11.30
2022-09-06T04:27:15.862Z,11.40
2022-09-06T04:29:43.386Z,11.40
2022-09-06T04:32:11.143Z,11.40
2022-09-06T04:34:38.700Z,11.30
2022-09-06T04:37:06.462Z,11.30
2022-09-06T04:39:33.897Z,11.30
2022-09-06T04:42:01.693Z,11.30
2022-09-06T04:44:29.161Z,11.30
2022-09-06T04:47:09.503Z,11.30
2022-09-06T04:49:37.398Z,11.40
2022-09-06T04:52:05.155Z,11.50
2022-09-06T04:54:33.814Z,11.50
2022-09-06T04:57:01.704Z,11.60
2022-09-06T04:59:29.132Z,11.60
2022-09-06T05:01:56.523Z,11.60
2022-09-06T05:04:24.131Z,11.70
2022-09-06T05:07:00.135Z,11.80
2022-09-06T05:09:27.936Z,11.80
2022-09-06T05:11:55.413Z,11.90
2022-09-06T05:14:22.994Z,12.00
2022-09-06T05:16:51.016Z,12.10
2022-09-06T05:19:19.426Z,12.20
2022-09-06T05:21:47.365Z,12.30
2022-09-06T05:24:14.896Z,12.40
2022-09-06T05:26:42.334Z,12.50
2022-09-06T05:29:09.907Z,12.70
2022-09-06T05:31:37.311Z,13.30
2022-09-06T05:34:04.887Z,13.40
2022-09-06T05:36:32.542Z,13.70
2022-09-06T05:39:00.143Z,14.00
2022-09-06T05:41:28.147Z,14.10
2022-09-06T05:43:55.955Z,14.10
2022-09-06T05:46:23.515Z,14.30
2022-09-06T05:49:10.740Z,14.10
2022-09-06T05:51:38.205Z,14.20
2022-09-06T05:54:05.991Z,14.20
2022-09-06T05:56:33.892Z,14.30
2022-09-06T05:59:01.622Z,14.50
2022-09-06T06:01:30.389Z,14.70
2022-09-06T06:03:59.617Z,14.80
2022-09-06T06:06:28.579Z,14.90
2022-09-06T06:08:56.631Z,14.90
2022-09-06T06:11:24.451Z,15.60
2022-09-06T06:13:51.990Z,15.80
2022-09-06T06:16:22.189Z,16.20
2022-09-06T06:18:52.313Z,16.40
2022-09-06T06:21:20.896Z,17.40
2022-09-06T06:23:50.355Z,18.50
2022-09-06T06:26:18.077Z,19.10
2022-09-06T06:28:45.815Z,18.80
2022-09-06T06:31:13.597Z,18.70
2022-09-06T06:33:41.177Z,20.90
2022-09-06T06:36:14.754Z,20.50
2022-09-06T06:38:43.966Z,19.80
2022-09-06T06:41:12.715Z,19.40
2022-09-06T06:43:40.712Z,19.30
2022-09-06T06:46:09.880Z,20.30
2022-09-06T06:48:38.120Z,21.30
2022-09-06T06:51:06.006Z,20.90
2022-09-06T06:53:33.565Z,21.20
2022-09-06T06:56:01.283Z,21.00
2022-09-06T06:58:29.299Z,20.00
2022-09-06T07:00:57.003Z,20.10
2022-09-06T07:03:24.941Z,20.50
2022-09-06T07:08:40.761Z,20.80
2022-09-06T07:11:10.227Z,21.10
2022-09-06T07:13:37.886Z,21.70
2022-09-06T07:16:13.501Z,20.80
2022-09-06T07:18:42.520Z,20.70
2022-09-06T07:24:06.748Z,21.50
2022-09-06T07:26:36.618Z,21.40
2022-09-06T07:29:04.942Z,21.20
2022-09-06T07:34:20.888Z,21.40
2022-09-06T07:36:48.964Z,21.80
2022-09-06T07:39:16.481Z,22.60
2022-09-06T07:41:44.345Z,22.80
2022-09-06T07:44:12.129Z,23.00
2022-09-06T07:46:39.693Z,22.80
2022-09-06T07:49:07.777Z,23.30
2022-09-06T07:51:35.563Z,24.50
2022-09-06T07:56:50.704Z,25.30
2022-09-06T07:59:18.392Z,26.00
2022-09-06T08:01:47.616Z,26.20
2022-09-06T08:04:15.393Z,26.80
2022-09-06T08:09:33.091Z,28.30
2022-09-06T08:12:07.122Z,31.20
2022-09-06T08:14:35.438Z,30.30
2022-09-06T08:17:03.369Z,29.30
2022-09-06T08:19:30.874Z,28.60
2022-09-06T08:21:58.743Z,30.10
2022-09-06T08:24:26.366Z,31.10
2022-09-06T08:26:54.018Z,29.00
2022-09-06T08:29:21.617Z,29.10
2022-09-06T08:31:50.052Z,29.00
2022-09-06T08:34:17.609Z,32.60
2022-09-06T08:36:45.747Z,35.40
2022-09-06T08:39:13.245Z,36.90
2022-09-06T08:41:52.924Z,41.00
2022-09-06T08:44:59.057Z,39.50
2022-09-06T08:47:26.688Z,41.90
2022-09-06T08:49:56.545Z,43.50
2022-09-06T08:52:24.055Z,43.70
2022-09-06T08:54:54.981Z,42.90
2022-09-06T08:57:22.338Z,45.00
2022-09-06T08:59:50.728Z,42.70
2022-09-06T09:02:20.243Z,44.40
2022-09-06T09:04:51.129Z,45.50
2022-09-06T09:07:37.466Z,46.10
2022-09-06T09:10:07.838Z,48.00
2022-09-06T09:12:38.739Z,48.00
2022-09-06T09:15:09.104Z,46.20
2022-09-06T09:17:37.573Z,47.60
2022-09-06T09:20:06.013Z,49.20
2022-09-06T09:22:33.508Z,47.90
2022-09-06T09:25:01.988Z,50.90
2022-09-06T09:27:29.766Z,46.40
2022-09-06T09:32:46.310Z,46.50
2022-09-06T09:35:32.598Z,44.80
2022-09-06T09:38:07.758Z,46.60
2022-09-06T09:40:52.422Z,46.20
2022-09-06T09:43:21.757Z,47.90
2022-09-06T09:46:10.286Z,49.00
2022-09-06T09:48:38.046Z,52.20
2022-09-06T09:51:26.616Z,50.60
2022-09-06T09:53:56.778Z,51.00
2022-09-06T09:56:34.457Z,51.90
2022-09-06T09:59:02.577Z,52.10
2022-09-06T10:01:30.942Z,52.50
2022-09-06T10:09:39.921Z,50.00
2022-09-06T10:12:07.474Z,55.30
2022-09-06T10:14:48.841Z,50.20
2022-09-06T10:17:20.561Z,52.10
2022-09-06T10:19:49.075Z,46.50
2022-09-06T10:22:23.533Z,50.20
2022-09-06T10:25:09.713Z,48.40
2022-09-06T10:27:55.530Z,45.60
2022-09-06T10:30:30.547Z,42.50
2022-09-06T10:33:05.202Z,44.20
2022-09-06T10:35:37.384Z,45.40
2022-09-06T10:38:17.437Z,42.80
2022-09-06T10:41:00.631Z,42.30
2022-09-06T10:43:31.621Z,40.00
2022-09-06T10:46:03.555Z,40.30
2022-09-06T10:48:49.085Z,41.20
2022-09-06T10:51:35.550Z,43.10
2022-09-06T10:54:07.120Z,41.70
2022-09-06T10:56:56.526Z,41.70
2022-09-06T10:59:42.630Z,42.20
2022-09-06T11:02:16.521Z,43.20
2022-09-06T11:07:38.233Z,46.70
2022-09-06T11:10:18.089Z,46.70
2022-09-06T11:12:45.718Z,44.60
2022-09-06T11:15:14.688Z,42.40
2022-09-06T11:18:00.856Z,37.30
2022-09-06T11:20:33.516Z,36.90
2022-09-06T11:23:07.459Z,36.80
2022-09-06T11:25:51.038Z,39.10
2022-09-06T11:28:41.628Z,40.60
2022-09-06T11:34:08.034Z,44.70
2022-09-06T11:36:37.162Z,42.70
2022-09-06T11:39:06.475Z,41.10
2022-09-06T11:41:38.547Z,38.00
2022-09-06T11:44:06.960Z,36.50
2022-09-06T11:46:34.465Z,34.90
2022-09-06T11:49:08.330Z,32.90
2022-09-06T11:51:35.848Z,31.10
2022-09-06T11:54:06.769Z,30.40
2022-09-06T11:56:41.115Z,27.60
2022-09-06T11:59:27.906Z,26.90
2022-09-06T12:01:55.438Z,27.70
2022-09-06T12:04:23.425Z,26.90
2022-09-06T12:07:09.821Z,26.50
2022-09-06T12:09:42.883Z,26.70
2022-09-06T12:12:16.175Z,26.10
2022-09-06T12:14:47.020Z,25.20
2022-09-06T12:17:14.489Z,25.10
2022-09-06T12:19:45.151Z,24.20
2022-09-06T12:22:28.214Z,24.70
2022-09-06T12:25:00.368Z,24.80
2022-09-06T12:27:39.471Z,24.50
2022-09-06T12:30:09.809Z,24.10
2022-09-06T12:32:40.388Z,23.80
2022-09-06T12:38:25.849Z,23.40
2022-09-06T12:40:58.749Z,23.20
2022-09-06T12:43:26.668Z,23.20
2022-09-06T12:45:54.352Z,23.30
2022-09-06T12:48:27.686Z,23.10
2022-09-06T12:51:06.157Z,22.90
2022-09-06T12:53:35.194Z,22.80
2022-09-06T12:56:05.049Z,22.70
2022-09-06T12:58:32.726Z,22.60
2022-09-06T13:01:06.283Z,23.10
2022-09-06T13:03:37.020Z,23.10
2022-09-06T13:06:05.787Z,24.10
2022-09-06T13:08:42.206Z,24.70
2022-09-06T13:11:11.512Z,25.10
2022-09-06T13:13:45.042Z,25.10
2022-09-06T13:16:18.663Z,25.10
2022-09-06T13:18:46.651Z,25.00
2022-09-06T13:21:24.939Z,24.90
2022-09-06T13:23:52.837Z,24.60
2022-09-06T13:26:40.075Z,23.40
2022-09-06T13:29:16.771Z,23.20
2022-09-06T13:31:45.948Z,22.90
2022-09-06T13:34:20.659Z,23.30
2022-09-06T13:36:53.021Z,23.70
2022-09-06T13:39:34.337Z,22.90
2022-09-06T13:42:22.331Z,23.20
2022-09-06T13:44:51.485Z,23.20
2022-09-06T13:47:19.562Z,22.70
2022-09-06T13:49:47.936Z,22.20
2022-09-06T13:52:15.687Z,22.30
2022-09-06T13:54:43.513Z,22.50
2022-09-06T13:57:11.398Z,22.80
2022-09-06T13:59:39.816Z,22.60
2022-09-06T14:02:09.168Z,22.50
2022-09-06T14:04:37.204Z,22.30
2022-09-06T14:07:06.058Z,22.10
2022-09-06T14:09:33.716Z,21.60
2022-09-06T14:12:33.894Z,21.50
2022-09-06T14:15:01.736Z,21.30
2022-09-06T14:17:30.651Z,21.00
2022-09-06T14:19:58.291Z,21.20
2022-09-06T14:22:25.986Z,21.10
2022-09-06T14:24:54.108Z,21.20
2022-09-06T14:27:22.824Z,21.20
2022-09-06T14:29:50.640Z,21.20
2022-09-06T14:32:22.555Z,21.20
2022-09-06T14:34:50.423Z,21.00
2022-09-06T14:37:18.085Z,20.60
2022-09-06T14:40:23.280Z,20.80
2022-09-06T14:42:50.929Z,21.20
2022-09-06T14:45:20.199Z,20.70
2022-09-06T14:47:47.867Z,20.10
2022-09-06T14:50:15.565Z,20.70
2022-09-06T14:52:43.217Z,20.90
2022-09-06T14:55:10.972Z,21.00
2022-09-06T14:57:39.182Z,21.10
2022-09-06T15:00:08.877Z,21.00
2022-09-06T15:02:36.654Z,20.90
2022-09-06T15:05:04.694Z,20.90
2022-09-06T15:07:32.970Z,20.80
2022-09-06T15:10:00.859Z,20.70
2022-09-06T15:12:29.208Z,20.50
2022-09-06T15:14:57.203Z,20.40
2022-09-06T15:17:25.939Z,19.90
2022-09-06T15:19:54.936Z,19.40
2022-09-06T15:22:23.050Z,19.50
2022-09-06T15:24:50.807Z,19.50
2022-09-06T15:27:19.183Z,19.60
2022-09-06T15:29:46.883Z,19.50
2022-09-06T15:32:14.552Z,19.40
2022-09-06T15:34:42.400Z,19.30
2022-09-06T15:37:10.634Z,19.20
2022-09-06T15:39:38.411Z,19.10
2022-09-06T15:42:06.511Z,19.10
2022-09-06T15:44:34.869Z,19.00
2022-09-06T15:47:02.799Z,19.00
2022-09-06T15:49:32.214Z,18.70
2022-09-06T15:52:02.129Z,18.60
2022-09-06T15:54:48.724Z,18.40
2022-09-06T15:57:17.438Z,18.50
2022-09-06T15:59:45.487Z,18.60
2022-09-06T16:02:13.815Z,18.60
2022-09-06T16:04:41.674Z,18.60
2022-09-06T16:07:10.023Z,18.60
2022-09-06T16:09:37.439Z,18.60
2022-09-06T16:12:05.660Z,18.50
2022-09-06T16:14:33.567Z,18.50
2022-09-06T16:17:02.279Z,18.30
2022-09-06T16:19:30.069Z,18.30
2022-09-06T16:21:59.489Z,18.20
2022-09-06T16:24:27.235Z,18.20
2022-09-06T16:26:54.853Z,18.10
2022-09-06T16:29:23.139Z,18.10
2022-09-06T16:31:56.182Z,18.00
2022-09-06T16:34:26.977Z,17.90
2022-09-06T16:36:56.045Z,17.90
2022-09-06T16:39:25.807Z,17.90
2022-09-06T16:41:54.656Z,17.80
2022-09-06T16:44:22.868Z,17.80
2022-09-06T16:46:50.867Z,17.60
2022-09-06T16:49:19.748Z,17.70
2022-09-06T16:51:48.341Z,17.70
2022-09-06T16:54:19.133Z,17.60
2022-09-06T16:56:49.040Z,17.60
2022-09-06T16:59:17.815Z,17.60
2022-09-06T17:01:46.427Z,17.50
2022-09-06T17:04:14.409Z,17.50
2022-09-06T17:06:46.243Z,17.40
2022-09-06T17:09:17.907Z,17.40
2022-09-06T17:11:47.387Z,17.30
2022-09-06T17:14:15.524Z,17.30
2022-09-06T17:17:02.739Z,17.20
2022-09-06T17:19:32.125Z,17.20
2022-09-06T17:22:01.482Z,17.10
2022-09-06T17:24:29.416Z,17.00
2022-09-06T17:26:57.400Z,17.00
2022-09-06T17:29:27.995Z,17.00
2022-09-06T17:31:58.372Z,17.00
2022-09-06T17:34:26.892Z,17.00
2022-09-06T17:36:54.890Z,16.90
2022-09-06T17:39:22.910Z,16.90
2022-09-06T17:41:51.646Z,16.90
2022-09-06T17:44:20.588Z,16.90
2022-09-06T17:47:09.048Z,16.90
2022-09-06T17:49:37.586Z,16.80
2022-09-06T17:52:05.820Z,16.80
2022-09-06T17:54:33.590Z,16.70
2022-09-06T17:57:01.539Z,16.60
2022-09-06T17:59:34.811Z,16.50
2022-09-06T18:02:04.145Z,16.40
2022-09-06T18:04:32.209Z,16.40
2022-09-06T18:07:00.137Z,16.40
2022-09-06T18:09:28.124Z,16.30
2022-09-06T18:11:55.942Z,16.30
2022-09-06T18:14:23.720Z,16.10
2022-09-06T18:16:52.592Z,16.00
2022-09-06T18:19:21.580Z,16.00
2022-09-06T18:21:49.894Z,16.00
2022-09-06T18:24:17.884Z,15.90
2022-09-06T18:26:45.797Z,15.90
2022-09-06T18:29:15.160Z,15.70
2022-09-06T18:31:43.799Z,15.60
2022-09-06T18:34:12.897Z,15.50
2022-09-06T18:36:40.794Z,15.20
2022-09-06T18:39:09.174Z,15.10
2022-09-06T18:41:55.441Z,15.20
2022-09-06T18:44:23.441Z,15.10
2022-09-06T18:46:55.974Z,15.00
2022-09-06T18:49:24.125Z,14.90
2022-09-06T18:51:51.895Z,14.90
2022-09-06T18:54:19.534Z,14.70
2022-09-06T18:56:49.834Z,14.70
2022-09-06T18:59:18.133Z,14.50
2022-09-06T19:01:46.363Z,14.50
2022-09-06T19:04:14.404Z,14.20
2022-09-06T19:06:44.424Z,14.20
2022-09-06T19:09:14.302Z,14.20
2022-09-06T19:11:44.687Z,14.20
2022-09-06T19:14:12.790Z,14.10
2022-09-06T19:16:42.291Z,14.10
2022-09-06T19:19:10.305Z,14.00
2022-09-06T19:21:42.000Z,14.00
2022-09-06T19:24:11.512Z,13.90
2022-09-06T19:26:40.654Z,13.80
2022-09-06T19:29:11.421Z,13.70
2022-09-06T19:31:39.533Z,13.70
2022-09-06T19:34:07.782Z,13.70
2022-09-06T19:36:35.961Z,13.60
2022-09-06T19:39:08.730Z,13.70
2022-09-06T19:41:38.304Z,13.50
2022-09-06T19:44:09.137Z,13.40
2022-09-06T19:46:42.777Z,13.40
2022-09-06T19:49:13.774Z,13.40
2022-09-06T19:51:41.725Z,13.40
2022-09-06T19:54:09.969Z,13.40
2022-09-06T19:56:37.585Z,13.30
2022-09-06T19:59:06.928Z,13.30
2022-09-06T20:01:35.939Z,13.20
2022-09-06T20:04:04.641Z,13.20
2022-09-06T20:06:32.419Z,13.20
2022-09-06T20:09:01.336Z,13.10
2022-09-06T20:11:30.136Z,13.00
2022-09-06T20:13:58.209Z,13.00
2022-09-06T20:16:25.789Z,12.90
2022-09-06T20:18:57.067Z,13.00
2022-09-06T20:21:25.728Z,13.00
2022-09-06T20:23:54.300Z,12.80
2022-09-06T20:26:24.038Z,12.70
2022-09-06T20:28:59.483Z,12.70
2022-09-06T20:31:28.635Z,12.70
2022-09-06T20:33:57.646Z,12.70
2022-09-06T20:36:26.170Z,12.70
2022-09-06T20:38:54.169Z,12.70
2022-09-06T20:41:24.188Z,12.70
2022-09-06T20:43:52.808Z,12.70
2022-09-06T20:46:22.078Z,12.60
2022-09-06T20:48:49.987Z,12.50
2022-09-06T20:51:21.822Z,12.40
2022-09-06T20:53:56.914Z,12.40
2022-09-06T20:56:26.139Z,12.50
2022-09-06T20:58:55.076Z,12.50
2022-09-06T21:01:24.223Z,12.40
2022-09-06T21:03:53.257Z,12.40
2022-09-06T21:06:21.111Z,12.50
2022-09-06T21:08:49.133Z,12.50
2022-09-06T21:11:17.111Z,12.40
2022-09-06T21:13:48.304Z,12.30
2022-09-06T21:16:18.409Z,12.30
2022-09-06T21:18:53.647Z,12.30
2022-09-06T21:21:22.442Z,12.20
2022-09-06T21:23:50.468Z,12.20
2022-09-06T21:26:18.271Z,12.20
2022-09-06T21:28:46.705Z,12.30
2022-09-06T21:31:19.507Z,12.20
2022-09-06T21:33:48.111Z,12.30
2022-09-06T21:36:16.672Z,12.20
2022-09-06T21:38:45.784Z,12.20
2022-09-06T21:41:14.494Z,12.30
2022-09-06T21:43:42.876Z,12.30
2022-09-06T21:46:12.293Z,12.20
2022-09-06T21:48:44.613Z,12.30
2022-09-06T21:51:14.412Z,12.30
2022-09-06T21:53:42.718Z,12.30
2022-09-06T21:56:10.617Z,12.30
2022-09-06T21:58:38.249Z,12.20
2022-09-06T22:01:06.355Z,12.20
2022-09-06T22:03:36.401Z,12.20
2022-09-06T22:06:11.133Z,12.30
2022-09-06T22:08:38.878Z,12.50
2022-09-06T22:11:14.159Z,12.50
2022-09-06T22:13:42.366Z,12.70
2022-09-06T22:16:10.424Z,12.70
2022-09-06T22:18:38.432Z,12.80
2022-09-06T22:21:08.105Z,12.70
2022-09-06T22:23:36.218Z,12.80
2022-09-06T22:26:05.308Z,12.80
2022-09-06T22:28:33.414Z,12.80
2022-09-06T22:31:01.340Z,12.80
2022-09-06T22:33:28.995Z,12.80
2022-09-06T22:35:56.647Z,12.90
2022-09-06T22:38:24.494Z,13.00
2022-09-06T22:40:51.924Z,13.00
2022-09-06T22:43:19.800Z,13.10
2022-09-06T22:45:51.853Z,13.10
2022-09-06T22:48:19.907Z,13.10
2022-09-06T22:50:50.011Z,13.20
2022-09-06T22:53:17.697Z,13.30
2022-09-06T22:55:48.414Z,13.40
2022-09-06T22:58:15.954Z,13.40
2022-09-06T23:00:43.765Z,13.40
2022-09-06T23:03:11.589Z,13.40
2022-09-06T23:05:39.004Z,13.50
2022-09-06T23:08:06.599Z,13.50
2022-09-06T23:10:39.019Z,13.50
2022-09-06T23:13:08.108Z,13.50
2022-09-06T23:15:36.400Z,13.50
2022-09-06T23:18:04.554Z,13.70
2022-09-06T23:20:32.388Z,13.60
2022-09-06T23:22:59.934Z,13.70
2022-09-06T23:25:27.381Z,13.60
2022-09-06T23:27:55.031Z,13.70
2022-09-06T23:30:22.613Z,13.60
2022-09-06T23:32:50.090Z,13.70
2022-09-06T23:35:17.814Z,13.80
2022-09-06T23:37:45.402Z,13.80
2022-09-06T23:40:12.965Z,13.80
2022-09-06T23:42:40.476Z,13.90
2022-09-06T23:45:08.451Z,13.90
2022-09-06T23:47:36.269Z,13.90
2022-09-06T23:50:04.463Z,13.90
2022-09-06T23:52:32.036Z,13.90
2022-09-06T23:54:59.731Z,13.90
2022-09-06T23:57:27.446Z,13.90
2022-09-06T23:59:55.134Z,13.90
